Lenora, Kansas
Current Conditions -  °F | °C
As of 10:53 AM on Saturday 25 Oct 2014 (Local Time) from KHLC Reporting Station
Clear Clear  
Wind Chill: 18°   Ceiling: Unl
Heat Index: 18°   Visibility: 10mi
Dew Point:   Wind: 5mph
Humidity: 54%   Direction: 50°NE
Pressure: 30.11"   Gusts: NA
Location:  39.61°N, 100°W
Report Text: KHLC 251553Z AUTO 05004KT 10SM CLR 18/08 A3011 RMK AO2 SLP188 T01780083
Loading
Personal Weather Stations






























Interactive Weather Map
Tropical Storm Tracking
New forecast layout! Learn more

10-Day Weather Forecast

Advertisements
Track Severe Weather on mobile